Time;durP1;ratioP1;P1;durP2;ratioP2;P2;SDS_P1;SDS_P2;PMS_P1;PMS_P2;Temp;Humidity;BMP_temperature;BMP_pressure;BME280_temperature;BME280_humidity;BME280_pressure;Samples;Min_cycle;Max_cycle;Signal;HPM_P1;HPM_P2
2022/07/04 00:01:06;;;;;;;5.75;3.10;;;;;;;26.75;38.50;99571.84;4495166;31;34825;-59
2022/07/04 00:03:34;;;;;;;5.03;3.20;;;;;;;26.92;37.98;99570.19;4486432;31;35296;-59
2022/07/04 00:06:02;;;;;;;5.97;2.95;;;;;;;26.94;37.82;99568.06;4485786;31;33440;-59
2022/07/04 00:08:29;;;;;;;4.75;2.95;;;;;;;26.86;38.11;99571.09;4487663;31;31773;-59
2022/07/04 00:10:57;;;;;;;7.20;3.35;;;;;;;26.91;37.78;99572.09;4487557;31;32419;-62
2022/07/04 00:13:24;;;;;;;6.45;3.15;;;;;;;26.97;37.62;99567.63;4485953;31;33964;-59
2022/07/04 00:15:52;;;;;;;6.07;3.37;;;;;;;26.97;37.56;99569.50;4487014;31;34977;-59
2022/07/04 00:18:20;;;;;;;5.43;2.95;;;;;;;26.99;37.51;99567.37;4486014;31;32241;-62
2022/07/04 00:20:47;;;;;;;5.25;2.87;;;;;;;27.04;37.47;99582.13;4487863;31;32743;-59
2022/07/04 00:23:15;;;;;;;4.82;2.92;;;;;;;27.01;37.54;99579.00;4486908;31;32943;-60
2022/07/04 00:25:43;;;;;;;7.62;3.30;;;;;;;26.94;37.70;99576.31;4491909;31;33709;-59
2022/07/04 00:28:10;;;;;;;5.85;2.87;;;;;;;26.94;37.67;99576.31;4492294;31;33401;-60
2022/07/04 00:30:38;;;;;;;5.87;2.85;;;;;;;26.88;37.66;99578.03;4484066;31;33430;-60
2022/07/04 00:33:10;;;;;;;5.10;2.65;;;;;;;26.77;38.26;99573.28;4485679;31;34778;-60
2022/07/04 00:35:38;;;;;;;5.30;3.05;;;;;;;26.70;37.82;99567.84;4487368;31;34038;-61
2022/07/04 00:38:06;;;;;;;5.18;2.95;;;;;;;26.45;38.35;99565.06;4491220;31;31216;-60
2022/07/04 00:40:34;;;;;;;5.12;3.00;;;;;;;26.45;38.19;99564.22;4489806;31;33862;-59
2022/07/04 00:43:03;;;;;;;5.22;2.90;;;;;;;26.39;38.30;99562.38;4486409;31;33754;-60
2022/07/04 00:45:31;;;;;;;5.45;3.05;;;;;;;26.38;38.43;99566.16;4486242;31;34860;-59
2022/07/04 00:47:58;;;;;;;6.53;3.20;;;;;;;26.42;38.28;99568.25;4490785;31;33175;-60
2022/07/04 00:50:26;;;;;;;5.18;3.10;;;;;;;26.44;38.17;99562.53;4488008;31;34941;-59
2022/07/04 00:52:54;;;;;;;4.68;2.97;;;;;;;26.57;37.92;99572.59;4475549;31;34049;-62
2022/07/04 00:55:23;;;;;;;6.60;3.08;;;;;;;26.61;37.77;99571.97;4487280;31;33736;-59
2022/07/04 00:57:50;;;;;;;5.45;3.10;;;;;;;26.55;38.00;99567.34;4487600;31;34556;-59
2022/07/04 01:00:18;;;;;;;4.90;2.90;;;;;;;26.50;37.90;99569.91;4489847;31;33785;-59
2022/07/04 01:02:46;;;;;;;4.75;3.22;;;;;;;26.51;37.71;99562.53;4486778;31;35240;-61
2022/07/04 01:05:14;;;;;;;4.75;2.80;;;;;;;26.51;37.60;99563.34;4484869;31;33613;-61
2022/07/04 01:07:43;;;;;;;6.50;3.22;;;;;;;26.47;37.93;99564.84;4488927;31;31921;-57
2022/07/04 01:10:11;;;;;;;5.20;2.90;;;;;;;26.52;37.82;99562.31;4486849;31;33780;-59
2022/07/04 01:12:38;;;;;;;4.97;3.05;;;;;;;26.59;37.73;99573.25;4485385;31;35074;-60
2022/07/04 01:15:07;;;;;;;6.32;3.10;;;;;;;26.53;37.84;99574.97;4483736;31;35557;-59
2022/07/04 01:17:35;;;;;;;5.20;2.85;;;;;;;26.56;37.76;99573.69;4482187;31;33220;-59
2022/07/04 01:20:04;;;;;;;6.22;3.20;;;;;;;26.55;37.79;99570.09;4481630;31;34954;-59
2022/07/04 01:22:32;;;;;;;7.30;3.33;;;;;;;26.54;37.64;99573.06;4491763;31;32593;-59
2022/07/04 01:25:00;;;;;;;7.30;3.45;;;;;;;26.40;37.93;99577.78;4494799;31;34772;-59
2022/07/04 01:27:27;;;;;;;5.35;3.58;;;;;;;26.40;37.81;99573.13;4498147;31;33195;-58
2022/07/04 01:29:55;;;;;;;5.55;3.42;;;;;;;26.35;37.78;99572.94;4496909;31;33764;-59
2022/07/04 01:32:22;;;;;;;5.68;3.15;;;;;;;26.40;37.63;99566.81;4498307;31;34050;-60
2022/07/04 01:34:50;;;;;;;5.28;3.50;;;;;;;26.35;37.73;99561.97;4494048;31;34945;-59
2022/07/04 01:37:18;;;;;;;6.65;3.17;;;;;;;26.42;37.71;99568.25;4488417;31;33321;-61
2022/07/04 01:39:46;;;;;;;6.78;3.42;;;;;;;26.42;37.98;99567.41;4494906;31;34738;-60
2022/07/04 01:42:13;;;;;;;6.22;3.35;;;;;;;26.39;38.19;99562.38;4498711;31;35007;-62
2022/07/04 01:44:41;;;;;;;6.43;3.45;;;;;;;26.32;38.61;99564.31;4497810;31;34947;-60
2022/07/04 01:47:09;;;;;;;6.20;3.42;;;;;;;26.34;38.26;99567.69;4499038;31;34495;-61
2022/07/04 01:49:36;;;;;;;6.75;3.33;;;;;;;26.47;38.09;99564.84;4498440;31;32587;-58
2022/07/04 01:52:04;;;;;;;5.20;3.10;;;;;;;26.36;38.00;99571.06;4498593;31;33921;-60
2022/07/04 01:54:32;;;;;;;6.10;3.00;;;;;;;26.33;38.04;99575.06;4496974;31;32691;-60
2022/07/04 01:56:59;;;;;;;5.97;3.17;;;;;;;26.30;38.14;99578.25;4489606;31;33343;-61
2022/07/04 02:02:13;;;;;;;6.20;3.42;;;;;;;26.22;38.33;99573.87;4488816;31;32594;-57
2022/07/04 02:04:41;;;;;;;6.45;3.60;;;;;;;26.20;38.31;99572.44;4498552;31;32288;-59
2022/07/04 02:07:09;;;;;;;4.93;2.92;;;;;;;26.15;38.39;99577.72;4489252;31;32021;-61
2022/07/04 02:09:36;;;;;;;4.95;3.20;;;;;;;26.05;38.54;99582.84;4487571;31;34497;-61
2022/07/04 02:14:50;;;;;;;5.80;3.20;;;;;;;26.04;38.39;99583.91;4493535;31;34965;-61
2022/07/04 02:17:18;;;;;;;4.55;2.70;;;;;;;26.04;38.38;99586.66;4491068;31;33091;-59
2022/07/04 02:19:46;;;;;;;6.72;3.97;;;;;;;26.11;38.28;99582.81;4496347;31;35065;-60
2022/07/04 02:22:14;;;;;;;5.93;3.58;;;;;;;26.11;38.36;99576.47;4492363;31;34150;-60
2022/07/04 02:24:42;;;;;;;13.20;4.32;;;;;;;26.10;38.34;99581.13;4490395;31;33177;-61
2022/07/04 02:27:10;;;;;;;7.00;3.25;;;;;;;26.11;38.28;99576.47;4489268;31;34029;-59
2022/07/04 02:29:37;;;;;;;7.30;3.67;;;;;;;26.11;38.29;99574.56;4490226;31;35064;-59
2022/07/04 02:32:05;;;;;;;6.22;3.40;;;;;;;26.08;38.27;99574.19;4491609;31;34486;-58
2022/07/04 02:34:33;;;;;;;5.35;3.50;;;;;;;26.05;38.38;99580.94;4497907;31;33974;-61
2022/07/04 02:37:00;;;;;;;7.78;3.47;;;;;;;26.11;38.37;99581.97;4489862;31;33022;-59
2022/07/04 02:39:28;;;;;;;6.72;3.50;;;;;;;26.08;38.39;99583.25;4490918;31;35061;-60
2022/07/04 02:41:56;;;;;;;6.70;3.40;;;;;;;26.11;38.33;99576.47;4490719;31;33465;-59
2022/07/04 02:44:23;;;;;;;6.95;3.25;;;;;;;26.15;38.35;99585.94;4490070;31;33940;-62
2022/07/04 02:46:51;;;;;;;8.10;3.90;;;;;;;26.06;38.50;99582.63;4495218;31;33256;-58
2022/07/04 02:49:19;;;;;;;5.28;3.35;;;;;;;26.10;38.44;99583.00;4490874;31;33707;-62
2022/07/04 02:51:47;;;;;;;5.80;3.45;;;;;;;26.08;38.55;99580.50;4489235;31;33978;-60
2022/07/04 02:54:15;;;;;;;5.95;3.12;;;;;;;25.98;38.82;99582.87;4493282;31;34857;-58
2022/07/04 02:56:43;;;;;;;6.68;3.58;;;;;;;26.05;38.67;99586.44;4488006;31;33317;-59
2022/07/04 02:59:10;;;;;;;7.25;4.05;;;;;;;26.11;38.59;99590.19;4490103;31;31843;-58
2022/07/04 03:01:38;;;;;;;6.75;4.03;;;;;;;26.13;38.59;99594.41;4487773;31;33028;-57
2022/07/04 03:04:06;;;;;;;5.80;3.65;;;;;;;26.17;38.51;99592.91;4493367;31;32473;-58
2022/07/04 03:06:33;;;;;;;5.47;3.60;;;;;;;26.21;38.48;99588.66;4493504;31;35050;-60
2022/07/04 03:09:01;;;;;;;6.97;4.32;;;;;;;26.28;38.35;99594.09;4499547;31;32635;-59
2022/07/04 03:11:28;;;;;;;6.43;3.50;;;;;;;26.34;38.27;99584.16;4489813;31;33756;-61
2022/07/04 03:13:56;;;;;;;6.50;4.00;;;;;;;26.33;38.37;99586.06;4490585;31;34645;-61
2022/07/04 03:16:24;;;;;;;6.35;3.45;;;;;;;26.39;38.49;99585.16;4488926;31;31962;-58
2022/07/04 03:18:52;;;;;;;11.40;3.55;;;;;;;26.28;39.10;99583.13;4488396;31;34711;-58
2022/07/04 03:21:19;;;;;;;6.28;3.45;;;;;;;26.18;39.58;99593.75;4490209;31;35246;-58
2022/07/04 03:23:57;;;;;;;7.32;3.58;;;;;;;26.45;39.24;99594.41;4488758;31;33220;-58
2022/07/04 03:26:26;;;;;;;9.52;3.87;;;;;;;26.58;38.98;99594.34;4488552;31;33198;-58
2022/07/04 03:28:54;;;;;;;6.28;4.00;;;;;;;26.69;38.40;99596.37;4490018;31;31952;-61
2022/07/04 03:31:22;;;;;;;5.90;3.60;;;;;;;26.68;38.25;99597.44;4497869;31;35081;-61
2022/07/04 03:33:50;;;;;;;6.72;3.70;;;;;;;26.62;38.41;99595.59;4489206;31;33702;-60
2022/07/04 03:36:18;;;;;;;7.12;3.10;;;;;;;26.73;38.10;99595.94;4498130;31;34445;-59
2022/07/04 03:38:46;;;;;;;6.62;3.92;;;;;;;26.85;38.24;99588.66;4487603;31;33659;-61
2022/07/04 03:41:13;;;;;;;5.47;3.42;;;;;;;26.92;38.72;99581.19;4490139;31;34446;-58
2022/07/04 03:43:41;;;;;;;5.25;3.35;;;;;;;26.88;38.99;99586.28;4487079;31;33523;-61
2022/07/04 03:46:09;;;;;;;6.18;3.90;;;;;;;26.85;38.77;99594.12;4488606;31;33472;-61
2022/07/04 03:48:36;;;;;;;6.70;3.80;;;;;;;26.73;39.30;99587.69;4492013;31;33627;-59
2022/07/04 03:51:04;;;;;;;6.40;3.95;;;;;;;26.70;39.59;99587.06;4487317;31;33042;-58
2022/07/04 03:53:32;;;;;;;6.32;4.22;;;;;;;26.69;39.29;99576.31;4486334;31;32529;-58
2022/07/04 03:55:59;;;;;;;7.37;3.60;;;;;;;26.92;39.08;99583.94;4496388;31;33650;-60
2022/07/04 03:58:27;;;;;;;7.20;4.20;;;;;;;27.03;38.87;99591.44;4494117;31;35144;-59
2022/07/04 04:00:55;;;;;;;6.10;3.60;;;;;;;26.96;39.01;99587.91;4496879;31;35179;-61
2022/07/04 04:06:09;;;;;;;8.68;3.83;;;;;;;27.15;38.71;99595.13;4491727;31;33312;-60
2022/07/04 04:08:37;;;;;;;5.45;3.35;;;;;;;27.24;38.84;99586.62;4494092;31;32439;-59
2022/07/04 04:11:04;;;;;;;9.07;3.60;;;;;;;27.14;38.70;99584.38;4495061;31;34961;-60
2022/07/04 04:13:32;;;;;;;8.70;4.32;;;;;;;27.33;38.26;99591.59;4498125;31;34101;-60
2022/07/04 04:16:00;;;;;;;6.65;4.05;;;;;;;27.52;37.85;99599.84;4497287;31;32315;-59
2022/07/04 04:18:27;;;;;;;8.80;3.80;;;;;;;27.46;38.12;99592.50;4489918;31;33358;-58
2022/07/04 04:20:55;;;;;;;6.65;3.70;;;;;;;27.57;38.93;99597.22;4490188;31;32772;-61
2022/07/04 04:23:23;;;;;;;6.82;3.40;;;;;;;27.69;39.54;99592.66;4489144;31;32526;-62
2022/07/04 04:25:50;;;;;;;5.93;3.47;;;;;;;27.75;39.48;99589.00;4498419;31;33376;-59
2022/07/04 04:28:22;;;;;;;6.68;4.12;;;;;;;27.75;39.60;99590.91;4497521;31;33939;-59
2022/07/04 04:30:50;;;;;;;7.55;4.05;;;;;;;27.76;39.27;99598.06;4496699;31;34052;-59
2022/07/04 04:33:18;;;;;;;10.70;4.03;;;;;;;27.99;39.22;99597.37;4496518;31;35436;-58
2022/07/04 04:35:45;;;;;;;12.45;3.60;;;;;;;28.10;39.44;99594.69;4493072;31;33464;-62
2022/07/04 04:38:13;;;;;;;6.05;3.45;;;;;;;28.19;38.80;99603.47;4500448;31;33987;-59
2022/07/04 04:40:41;;;;;;;6.43;3.95;;;;;;;28.34;38.26;99594.78;4490301;31;35144;-61
2022/07/04 04:43:08;;;;;;;7.15;4.00;;;;;;;28.39;37.89;99596.84;4490538;31;34952;-59
2022/07/04 04:45:36;;;;;;;5.62;3.62;;;;;;;28.28;37.65;99587.44;4492732;31;34594;-59
2022/07/04 04:48:04;;;;;;;7.07;3.80;;;;;;;28.54;37.05;99589.03;4499507;31;33549;-59
2022/07/04 04:50:31;;;;;;;6.87;3.85;;;;;;;28.44;37.23;99585.97;4498839;31;33610;-58
2022/07/04 04:53:00;;;;;;;5.50;3.25;;;;;;;28.61;36.80;99586.16;4489490;31;34032;-61
2022/07/04 04:55:27;;;;;;;6.28;3.87;;;;;;;28.76;36.42;99584.63;4495118;31;34423;-59
2022/07/04 04:57:55;;;;;;;7.50;3.95;;;;;;;28.73;36.21;99587.84;4489763;31;33994;-60
2022/07/04 05:00:23;;;;;;;6.40;3.40;;;;;;;28.92;35.77;99572.03;4498207;31;35062;-61
2022/07/04 05:02:51;;;;;;;7.37;3.58;;;;;;;28.98;36.24;99582.09;4498013;31;33917;-59
2022/07/04 05:05:18;;;;;;;5.53;3.25;;;;;;;29.04;36.25;99582.28;4499038;31;34647;-60
2022/07/04 05:07:46;;;;;;;6.55;3.67;;;;;;;29.07;36.59;99588.16;4498488;31;33778;-59
2022/07/04 05:10:15;;;;;;;6.22;4.18;;;;;;;29.27;36.02;99587.78;4499253;31;34193;-60
2022/07/04 05:12:43;;;;;;;6.80;3.53;;;;;;;29.36;36.02;99591.00;4496228;31;33875;-62
2022/07/04 05:15:11;;;;;;;7.78;3.55;;;;;;;29.52;35.64;99592.19;4497677;31;33370;-59
2022/07/04 05:17:38;;;;;;;5.57;3.47;;;;;;;29.53;35.87;99585.59;4498648;31;33622;-59
2022/07/04 05:20:07;;;;;;;5.95;3.42;;;;;;;29.57;35.87;99592.31;4500294;31;35212;-59
2022/07/04 05:22:35;;;;;;;5.20;3.35;;;;;;;29.65;35.77;99590.03;4500086;31;33820;-59
2022/07/04 05:25:03;;;;;;;7.43;3.85;;;;;;;29.64;35.95;99604.06;4499480;31;34379;-60
2022/07/04 05:27:31;;;;;;;6.25;4.07;;;;;;;29.60;35.05;99594.56;4498373;31;33855;-61
2022/07/04 05:29:59;;;;;;;6.40;3.40;;;;;;;29.61;34.92;99599.88;4489234;31;34841;-61
2022/07/04 05:32:26;;;;;;;5.70;3.60;;;;;;;29.67;35.00;99592.56;4495642;31;33831;-60
2022/07/04 05:34:54;;;;;;;5.95;3.33;;;;;;;29.43;35.30;99600.81;4497439;31;33176;-60
2022/07/04 05:37:22;;;;;;;7.53;3.65;;;;;;;29.85;34.78;99597.87;4494166;31;33526;-59
2022/07/04 05:39:50;;;;;;;6.07;3.45;;;;;;;29.69;35.81;99595.88;4493443;31;34590;-60
2022/07/04 05:42:17;;;;;;;5.30;3.47;;;;;;;29.77;35.55;99595.53;4498637;31;35092;-59
2022/07/04 05:44:45;;;;;;;6.87;3.72;;;;;;;29.89;35.28;99601.84;4493507;31;33585;-61
2022/07/04 05:47:13;;;;;;;6.03;3.50;;;;;;;30.15;35.14;99602.34;4495885;31;33907;-59
2022/07/04 05:49:41;;;;;;;8.43;3.97;;;;;;;30.16;34.17;99606.78;4498235;31;34057;-61
2022/07/04 05:52:09;;;;;;;5.62;3.87;;;;;;;30.20;33.68;99602.47;4487113;31;32641;-60
2022/07/04 05:54:36;;;;;;;5.62;3.60;;;;;;;30.16;34.44;99612.31;4489839;31;33550;-59
2022/07/04 05:57:04;;;;;;;7.47;3.65;;;;;;;29.91;35.25;99613.47;4499312;31;34864;-59
2022/07/04 05:59:32;;;;;;;7.35;4.03;;;;;;;30.03;34.06;99604.31;4500404;31;33931;-60
2022/07/04 06:01:59;;;;;;;5.75;3.62;;;;;;;29.78;35.13;99607.38;4500338;31;33746;-62
2022/07/04 06:04:28;;;;;;;6.03;3.72;;;;;;;30.02;34.57;99603.50;4499430;31;33142;-63
2022/07/04 06:06:55;;;;;;;6.10;4.12;;;;;;;30.30;34.42;99604.59;4500984;31;34444;-62
2022/07/04 06:09:23;;;;;;;7.90;4.15;;;;;;;30.10;34.63;99605.00;4490204;31;34074;-59
2022/07/04 06:11:50;;;;;;;6.97;4.47;;;;;;;30.24;34.14;99600.91;4496713;31;34543;-59
2022/07/04 06:14:18;;;;;;;6.35;4.05;;;;;;;30.00;34.78;99593.78;4499962;31;33035;-62
2022/07/04 06:16:46;;;;;;;8.80;4.12;;;;;;;30.00;33.61;99605.66;4495708;31;34935;-59
2022/07/04 06:19:13;;;;;;;10.75;4.87;;;;;;;30.16;33.27;99607.63;4486067;31;32621;-59
2022/07/04 06:21:41;;;;;;;7.70;4.43;;;;;;;30.19;34.09;99598.03;4498401;31;35062;-59
2022/07/04 06:24:09;;;;;;;8.20;4.07;;;;;;;30.18;33.43;99597.19;4488312;31;31733;-58
2022/07/04 06:26:36;;;;;;;7.97;4.15;;;;;;;30.41;33.44;99600.94;4485460;32;33604;-61
2022/07/04 06:29:04;;;;;;;7.50;4.20;;;;;;;30.44;33.17;99603.22;4498114;31;33033;-59
2022/07/04 06:31:32;;;;;;;6.68;4.12;;;;;;;29.95;34.28;99600.00;4493957;31;33991;-61
2022/07/04 06:36:46;;;;;;;8.90;4.47;;;;;;;30.18;33.79;99605.47;4498753;31;35417;-61
2022/07/04 06:39:13;;;;;;;7.32;4.20;;;;;;;30.56;33.39;99608.66;4491701;31;32668;-59
2022/07/04 06:41:41;;;;;;;7.85;3.87;;;;;;;30.62;32.80;99614.00;4490474;31;34279;-62
2022/07/04 06:44:08;;;;;;;6.07;3.67;;;;;;;30.41;32.15;99609.22;4498328;31;34725;-63
2022/07/04 06:46:40;;;;;;;8.05;3.95;;;;;;;30.25;32.86;99602.59;4497842;31;33927;-62
2022/07/04 06:49:08;;;;;;;8.23;4.00;;;;;;;30.18;33.45;99597.19;4496703;31;33791;-59
2022/07/04 06:51:35;;;;;;;8.25;4.20;;;;;;;30.48;32.85;99598.03;4492609;31;33959;-59
2022/07/04 06:54:03;;;;;;;6.00;3.58;;;;;;;30.58;32.27;99600.97;4487738;31;33056;-59
2022/07/04 06:56:31;;;;;;;6.90;4.28;;;;;;;30.17;33.15;99611.22;4486517;31;32534;-61
2022/07/04 06:58:59;;;;;;;6.70;3.78;;;;;;;30.51;32.83;99597.53;4495759;31;35303;-59
2022/07/04 07:01:27;;;;;;;5.68;3.55;;;;;;;30.58;33.20;99612.00;4488633;31;32379;-58
2022/07/04 07:03:54;;;;;;;5.97;3.65;;;;;;;29.94;32.72;99609.38;4498166;31;32961;-59
2022/07/04 07:06:23;;;;;;;17.45;4.20;;;;;;;30.54;32.80;99610.84;4488376;31;34812;-57
2022/07/04 07:08:51;;;;;;;5.00;3.25;;;;;;;30.76;30.97;99605.44;4497755;31;35218;-60
2022/07/04 07:11:19;;;;;;;8.02;3.60;;;;;;;30.72;31.25;99612.53;4498208;31;35443;-61
2022/07/04 07:13:50;;;;;;;7.18;3.95;;;;;;;31.04;31.66;99608.12;4497037;31;33473;-59
2022/07/04 07:16:19;;;;;;;12.20;4.65;;;;;;;30.99;31.28;99605.28;4495377;31;34783;-60
2022/07/04 07:18:48;;;;;;;5.18;3.15;;;;;;;31.09;30.76;99608.19;4499234;31;34514;-58
2022/07/04 07:21:16;;;;;;;7.47;3.50;;;;;;;30.96;30.58;99618.78;4491142;31;32471;-60
2022/07/04 07:23:44;;;;;;;5.97;3.33;;;;;;;31.24;31.12;99610.38;4500619;31;33548;-61
2022/07/04 07:26:12;;;;;;;5.60;3.30;;;;;;;31.27;30.07;99609.03;4485620;31;33486;-60
2022/07/04 07:28:40;;;;;;;5.70;3.65;;;;;;;31.23;31.07;99603.16;4493453;31;33962;-58
2022/07/04 07:31:08;;;;;;;8.20;3.95;;;;;;;31.17;31.05;99617.16;4490668;31;34948;-58
2022/07/04 07:33:36;;;;;;;6.25;3.10;;;;;;;31.02;30.50;99609.47;4487744;31;31922;-59
2022/07/04 07:36:04;;;;;;;5.85;3.00;;;;;;;30.98;30.46;99611.91;4496249;31;35186;-61
2022/07/04 07:38:32;;;;;;;7.65;2.80;;;;;;;31.07;30.31;99617.81;4496566;31;33937;-60
2022/07/04 07:40:59;;;;;;;6.60;2.75;;;;;;;30.76;30.35;99614.56;4493376;31;32306;-60
2022/07/04 07:43:27;;;;;;;6.62;2.67;;;;;;;31.08;30.24;99609.31;4500002;31;33475;-59
2022/07/04 07:45:55;;;;;;;4.37;2.47;;;;;;;31.19;30.04;99610.28;4494337;31;34540;-62
2022/07/04 07:48:23;;;;;;;4.53;2.50;;;;;;;31.41;28.95;99601.25;4492842;31;34386;-59
2022/07/04 07:50:51;;;;;;;4.32;2.53;;;;;;;31.17;28.88;99604.16;4485218;31;33697;-62
2022/07/04 07:53:19;;;;;;;8.90;3.30;;;;;;;31.49;28.22;99604.41;4493273;31;34526;-59
2022/07/04 07:55:46;;;;;;;11.40;2.83;;;;;;;31.40;28.67;99605.09;4495670;31;32604;-59
2022/07/04 07:58:14;;;;;;;4.15;2.33;;;;;;;31.60;29.09;99599.84;4498388;31;34068;-59
2022/07/04 08:00:42;;;;;;;9.93;3.65;;;;;;;31.66;28.25;99600.75;4495070;31;33795;-59
2022/07/04 08:06:12;;;;;;;5.50;2.03;;;;;;;31.48;28.48;99601.88;4498043;31;34637;-60
2022/07/04 08:08:43;;;;;;;4.75;2.30;;;;;;;31.69;28.44;99591.94;4492838;31;32805;-58
2022/07/04 08:11:11;;;;;;;3.80;2.12;;;;;;;31.71;27.25;99590.56;4496359;31;33495;-59
2022/07/04 08:13:39;;;;;;;5.03;2.20;;;;;;;32.12;27.15;99581.97;4495641;31;34119;-61
2022/07/04 08:16:07;;;;;;;5.97;2.05;;;;;;;32.14;26.77;99588.91;4494234;31;32807;-60
2022/07/04 08:18:35;;;;;;;6.82;1.73;;;;;;;32.08;26.44;99584.41;4493735;31;35020;-61
2022/07/04 08:21:03;;;;;;;5.35;2.10;;;;;;;31.66;26.63;99589.69;4485374;31;33509;-60
2022/07/04 08:23:40;;;;;;;4.03;2.15;;;;;;;31.77;26.98;99574.87;4486484;31;33300;-62
2022/07/04 08:26:28;;;;;;;3.58;1.98;;;;;;;31.59;27.56;99577.97;4496769;31;33301;-62
2022/07/04 08:28:57;;;;;;;4.10;2.50;;;;;;;32.03;27.17;99578.81;4495780;31;32529;-62
2022/07/04 08:31:26;;;;;;;5.18;1.70;;;;;;;32.58;26.56;99577.72;4496676;31;32559;-61
2022/07/04 08:34:14;;;;;;;3.22;1.90;;;;;;;31.90;26.09;99577.28;4498487;31;33219;-60
2022/07/04 08:36:42;;;;;;;2.55;1.42;;;;;;;31.81;26.64;99578.78;4496887;31;33654;-59
2022/07/04 08:39:09;;;;;;;2.33;1.40;;;;;;;32.21;25.66;99586.78;4496638;31;34035;-60
2022/07/04 08:41:39;;;;;;;3.92;1.77;;;;;;;31.85;25.91;99588.28;4499257;31;34276;-59
2022/07/04 08:44:10;;;;;;;2.62;1.62;;;;;;;32.11;25.39;99585.84;4497696;31;33350;-59
2022/07/04 08:46:39;;;;;;;2.62;1.42;;;;;;;32.32;25.87;99575.78;4498873;31;33892;-60
2022/07/04 08:49:15;;;;;;;3.12;1.60;;;;;;;32.43;25.10;99583.16;4484798;31;34829;-61
2022/07/04 08:51:54;;;;;;;2.60;1.40;;;;;;;32.84;24.29;99580.72;4492447;31;32613;-59
2022/07/04 09:00:06;;;;;;;2.15;1.42;;;;;;;33.01;24.96;99577.84;4494353;31;33838;-62
2022/07/04 09:02:37;;;;;;;4.10;1.67;;;;;;;32.93;24.79;99593.00;4491288;31;32384;-61
2022/07/04 09:05:06;;;;;;;3.08;1.80;;;;;;;33.22;24.99;99593.50;4498480;31;33040;-61
2022/07/04 09:07:34;;;;;;;3.17;1.55;;;;;;;32.80;25.34;99585.97;4496398;31;33755;-59
2022/07/04 09:10:02;;;;;;;3.42;1.70;;;;;;;33.20;24.59;99581.03;4499170;31;34141;-58
2022/07/04 09:12:30;;;;;;;4.05;1.90;;;;;;;33.02;24.61;99588.66;4496010;31;34211;-61
2022/07/04 09:15:18;;;;;;;2.70;1.48;;;;;;;33.23;24.30;99578.56;4497499;31;33305;-60
2022/07/04 09:17:46;;;;;;;4.20;1.62;;;;;;;33.04;24.29;99583.69;4494649;31;33251;-62
2022/07/04 09:20:18;;;;;;;2.75;1.45;;;;;;;33.31;24.42;99593.84;4497884;31;34354;-59
2022/07/04 09:22:47;;;;;;;2.90;1.70;;;;;;;33.07;24.43;99583.16;4499019;31;34895;-61
2022/07/04 09:25:15;;;;;;;6.78;1.75;;;;;;;33.76;23.65;99584.13;4498753;31;34577;-60
2022/07/04 09:27:48;;;;;;;3.97;1.60;;;;;;;34.06;23.38;99575.94;4497123;31;35151;-62
2022/07/04 09:30:19;;;;;;;3.12;1.80;;;;;;;33.94;23.69;99583.63;4484370;31;32575;-63
2022/07/04 09:32:52;;;;;;;5.37;2.10;;;;;;;33.91;23.75;99577.81;4498005;31;34353;-60
2022/07/04 09:35:24;;;;;;;4.07;1.95;;;;;;;34.55;23.71;99574.66;4497700;31;33187;-62
2022/07/04 09:37:54;;;;;;;4.12;2.10;;;;;;;34.32;23.60;99576.00;4494829;31;33971;-62
2022/07/04 09:40:27;;;;;;;5.68;1.73;;;;;;;34.40;23.15;99580.16;4485731;31;32624;-60
2022/07/04 09:42:57;;;;;;;4.70;1.80;;;;;;;34.20;22.79;99579.03;4489132;31;33228;-62
2022/07/04 09:45:26;;;;;;;3.28;1.67;;;;;;;34.78;22.59;99573.28;4486453;31;31678;-62
2022/07/04 09:47:58;;;;;;;3.85;2.10;;;;;;;33.92;22.90;99568.34;4496464;31;33793;-61
2022/07/04 09:50:28;;;;;;;4.07;1.90;;;;;;;34.35;22.91;99577.38;4499135;31;34144;-61
2022/07/04 09:53:02;;;;;;;3.78;1.98;;;;;;;35.04;22.48;99563.00;4484353;31;33263;-63
2022/07/04 09:55:37;;;;;;;5.78;2.17;;;;;;;34.88;22.77;99570.47;4497914;31;34497;-62
2022/07/04 09:58:09;;;;;;;4.55;1.83;;;;;;;35.10;22.46;99570.22;4494244;31;34761;-59
2022/07/04 10:00:41;;;;;;;3.45;1.80;;;;;;;35.52;21.76;99566.19;4487644;31;34942;-59
2022/07/04 10:03:37;;;;;;;4.50;2.40;;;;;;;36.09;21.86;99562.09;4488225;31;32461;-60
2022/07/04 10:06:09;;;;;;;3.85;2.22;;;;;;;35.83;22.54;99547.47;4495748;31;33792;-59
2022/07/04 10:08:41;;;;;;;4.32;2.20;;;;;;;35.27;22.62;99550.41;4497554;31;34934;-60
2022/07/04 10:11:09;;;;;;;3.50;2.10;;;;;;;35.80;21.84;99550.81;4493741;31;34984;-60
2022/07/04 10:13:46;;;;;;;4.80;2.47;;;;;;;35.50;22.38;99548.94;4498083;31;33648;-60
2022/07/04 10:16:15;;;;;;;7.10;2.20;;;;;;;35.35;22.22;99535.94;4498337;31;33593;-60
2022/07/04 10:18:44;;;;;;;3.20;1.77;;;;;;;35.87;21.87;99544.94;4492440;31;33629;-59
2022/07/04 10:21:12;;;;;;;4.20;1.90;;;;;;;36.16;21.60;99533.94;4494909;31;34154;-59
2022/07/04 10:23:40;;;;;;;7.40;2.78;;;;;;;36.27;22.03;99527.16;4496703;31;33661;-62
2022/07/04 10:26:08;;;;;;;5.47;2.20;;;;;;;36.49;21.43;99526.69;4487110;31;31916;-62
2022/07/04 10:28:37;;;;;;;3.03;1.92;;;;;;;36.37;21.33;99523.44;4489147;31;34447;-61
2022/07/04 10:31:05;;;;;;;5.60;2.03;;;;;;;36.26;20.24;99521.87;4497603;31;32261;-61
2022/07/04 10:33:34;;;;;;;3.67;1.90;;;;;;;35.91;20.23;99521.78;4482736;31;32230;-62
2022/07/04 10:36:04;;;;;;;3.28;1.77;;;;;;;36.36;20.33;99519.84;4485773;31;33466;-62
2022/07/04 10:38:34;;;;;;;3.87;1.80;;;;;;;36.56;20.32;99509.66;4492653;31;34175;-59
2022/07/04 10:41:06;;;;;;;3.30;1.80;;;;;;;36.06;20.29;99506.97;4494758;31;34244;-59
2022/07/04 10:43:43;;;;;;;2.53;1.40;;;;;;;35.75;20.33;99505.47;4498061;31;32495;-59
2022/07/04 10:46:19;;;;;;;4.18;1.60;;;;;;;35.78;20.31;99513.25;4488154;31;32845;-60
2022/07/04 10:48:57;;;;;;;3.55;1.40;;;;;;;35.85;19.82;99508.19;4495566;31;34068;-62
2022/07/04 10:51:38;;;;;;;2.03;1.25;;;;;;;35.85;19.18;99505.41;4493072;31;32017;-60
2022/07/04 10:54:07;;;;;;;4.40;1.40;;;;;;;35.60;19.37;99503.56;4498971;31;34879;-59
2022/07/04 10:56:46;;;;;;;2.25;1.23;;;;;;;36.44;18.48;99500.81;4493985;31;33345;-61
2022/07/04 10:59:28;;;;;;;2.80;1.45;;;;;;;36.59;19.32;99503.50;4497993;31;32421;-60
2022/07/04 11:02:09;;;;;;;3.55;1.60;;;;;;;37.10;18.06;99502.22;4495772;31;34029;-61
2022/07/04 11:05:03;;;;;;;2.05;1.20;;;;;;;36.84;18.26;99497.69;4496112;31;34052;-62
2022/07/04 11:07:37;;;;;;;3.17;1.70;;;;;;;36.88;19.87;99497.09;4499147;31;33171;-60
2022/07/04 11:10:11;;;;;;;3.00;1.60;;;;;;;36.34;19.75;99494.22;4485150;31;32296;-59
2022/07/04 11:12:54;;;;;;;3.97;1.67;;;;;;;36.57;18.85;99484.31;4493511;31;32608;-62
2022/07/04 11:15:31;;;;;;;3.15;1.60;;;;;;;37.09;18.26;99484.66;4500020;31;33456;-59
2022/07/04 11:18:11;;;;;;;2.05;1.42;;;;;;;37.20;18.46;99480.59;4497363;31;35249;-59
2022/07/04 11:20:45;;;;;;;4.70;1.87;;;;;;;36.42;19.25;99484.41;4496638;31;34261;-60
2022/07/04 11:23:15;;;;;;;3.35;1.55;;;;;;;36.66;19.46;99478.09;4486280;31;32633;-59
2022/07/04 11:25:44;;;;;;;3.78;1.67;;;;;;;37.00;18.70;99476.09;4490135;31;32680;-62
2022/07/04 11:28:31;;;;;;;3.22;1.95;;;;;;;35.55;19.29;99468.25;4490819;31;33270;-59
2022/07/04 11:31:11;;;;;;;3.20;1.40;;;;;;;36.60;18.50;99464.22;4486752;31;33615;-60
2022/07/04 11:33:41;;;;;;;2.35;1.40;;;;;;;36.11;18.87;99456.78;4486320;31;32641;-59
2022/07/04 11:36:12;;;;;;;2.65;1.40;;;;;;;36.06;18.71;99458.78;4500498;31;34172;-62
2022/07/04 11:38:48;;;;;;;3.70;1.50;;;;;;;36.32;18.68;99463.03;4483573;31;33087;-59
2022/07/04 11:47:11;;;;;;;3.47;1.60;;;;;;;36.63;18.52;99445.22;4495378;31;34207;-61
2022/07/04 11:49:53;;;;;;;4.05;1.40;;;;;;;36.68;17.95;99432.06;4488485;31;32389;-59
2022/07/04 11:52:23;;;;;;;3.92;1.37;;;;;;;36.50;18.52;99441.16;4483780;31;32388;-60
2022/07/04 11:55:13;;;;;;;2.75;1.58;;;;;;;36.02;17.59;99435.41;4496412;31;32939;-61
2022/07/04 11:57:44;;;;;;;2.70;1.60;;;;;;;35.81;17.36;99427.19;4493709;31;31463;-60
2022/07/04 12:00:17;;;;;;;2.60;1.45;;;;;;;35.93;17.33;99429.63;4495722;31;35846;-60
2022/07/04 12:02:49;;;;;;;2.53;1.60;;;;;;;36.16;17.74;99433.62;4497216;31;32505;-60
2022/07/04 12:05:17;;;;;;;5.22;1.42;;;;;;;35.88;18.49;99427.69;4496649;31;33695;-60
2022/07/04 12:07:47;;;;;;;3.30;1.75;;;;;;;36.49;18.12;99433.91;4495895;31;33265;-63
2022/07/04 12:10:35;;;;;;;1.98;1.27;;;;;;;36.66;18.37;99425.94;4496037;31;33681;-60